createdAt,value
2023-05-19T00:00:05.321Z,1002.52
2023-05-19T00:01:05.295Z,1002.49
2023-05-19T00:02:05.325Z,1002.49
2023-05-19T00:03:05.349Z,1002.49
2023-05-19T00:04:05.286Z,1002.49
2023-05-19T00:05:05.275Z,1002.46
2023-05-19T00:06:05.258Z,1002.53
2023-05-19T00:07:05.236Z,1002.53
2023-05-19T00:08:05.218Z,1002.53
2023-05-19T00:09:05.225Z,1002.48
2023-05-19T00:10:05.208Z,1002.53
2023-05-19T00:11:05.198Z,1002.54
2023-05-19T00:12:05.194Z,1002.51
2023-05-19T00:13:05.181Z,1002.52
2023-05-19T00:14:05.164Z,1002.57
2023-05-19T00:15:05.150Z,1002.53
2023-05-19T00:16:05.160Z,1002.48
2023-05-19T00:17:05.153Z,1002.53
2023-05-19T00:18:05.174Z,1002.50
2023-05-19T00:19:05.144Z,1002.49
2023-05-19T00:20:05.094Z,1002.51
2023-05-19T00:21:05.085Z,1002.50
2023-05-19T00:22:05.074Z,1002.56
2023-05-19T00:23:05.099Z,1002.51
2023-05-19T00:24:05.073Z,1002.48
2023-05-19T00:25:05.041Z,1002.53
2023-05-19T00:26:05.031Z,1002.56
2023-05-19T00:27:05.043Z,1002.58
2023-05-19T00:28:05.029Z,1002.54
2023-05-19T00:29:05.012Z,1002.55
2023-05-19T00:30:05.002Z,1002.54
2023-05-19T00:31:04.980Z,1002.49
2023-05-19T00:32:05.060Z,1002.48
2023-05-19T00:33:04.982Z,1002.48
2023-05-19T00:34:04.976Z,1002.47
2023-05-19T00:35:04.961Z,1002.47
2023-05-19T00:36:04.941Z,1002.46
2023-05-19T00:37:04.980Z,1002.43
2023-05-19T00:38:04.924Z,1002.46
2023-05-19T00:39:04.916Z,1002.43
2023-05-19T00:40:04.890Z,1002.46
2023-05-19T00:41:04.891Z,1002.47
2023-05-19T00:42:04.909Z,1002.40
2023-05-19T00:43:04.870Z,1002.47
2023-05-19T00:44:04.860Z,1002.46
2023-05-19T00:45:04.841Z,1002.52
2023-05-19T00:46:04.949Z,1002.46
2023-05-19T00:47:04.937Z,1002.45
2023-05-19T00:48:04.848Z,1002.49
2023-05-19T00:49:04.822Z,1002.39
2023-05-19T00:50:04.796Z,1002.44
2023-05-19T00:51:04.997Z,1002.40
2023-05-19T00:52:04.792Z,1002.36
2023-05-19T00:53:04.773Z,1002.43
2023-05-19T00:54:04.759Z,1002.47
2023-05-19T00:55:04.750Z,1002.41
2023-05-19T00:56:04.765Z,1002.43
2023-05-19T00:57:04.736Z,1002.45
2023-05-19T00:58:04.723Z,1002.44
2023-05-19T00:59:04.715Z,1002.39
2023-05-19T01:00:04.707Z,1002.44
2023-05-19T01:01:05.288Z,1002.39
2023-05-19T01:02:04.692Z,1002.38
2023-05-19T01:03:04.725Z,1002.38
2023-05-19T01:04:04.776Z,1002.34
2023-05-19T01:05:04.685Z,1002.39
2023-05-19T01:06:04.632Z,1002.36
2023-05-19T01:07:05.628Z,1002.32
2023-05-19T01:08:04.635Z,1002.33
2023-05-19T01:09:04.628Z,1002.34
2023-05-19T01:10:04.640Z,1002.37
2023-05-19T01:11:04.592Z,1002.37
2023-05-19T01:12:04.584Z,1002.34
2023-05-19T01:13:04.573Z,1002.34
2023-05-19T01:14:04.598Z,1002.37
2023-05-19T01:15:04.577Z,1002.33
2023-05-19T01:16:04.584Z,1002.29
2023-05-19T01:17:04.529Z,1002.31
2023-05-19T01:18:04.572Z,1002.29
2023-05-19T01:19:04.564Z,1002.33
2023-05-19T01:20:04.492Z,1002.30
2023-05-19T01:21:04.493Z,1002.25
2023-05-19T01:22:04.476Z,1002.31
2023-05-19T01:23:04.478Z,1002.27
2023-05-19T01:24:04.493Z,1002.24
2023-05-19T01:25:04.454Z,1002.24
2023-05-19T01:26:04.440Z,1002.27
2023-05-19T01:27:04.423Z,1002.23
2023-05-19T01:28:04.443Z,1002.20
2023-05-19T01:29:04.435Z,1002.20
2023-05-19T01:30:04.436Z,1002.13
2023-05-19T01:31:04.386Z,1002.23
2023-05-19T01:32:04.409Z,1002.22
2023-05-19T01:33:04.395Z,1002.20
2023-05-19T01:34:04.381Z,1002.23
2023-05-19T01:35:04.344Z,1002.23
2023-05-19T01:36:04.344Z,1002.21
2023-05-19T01:37:04.324Z,1002.23
2023-05-19T01:38:04.323Z,1002.24
2023-05-19T01:39:04.315Z,1002.20
2023-05-19T01:40:04.301Z,1002.26
2023-05-19T01:41:04.305Z,1002.22
2023-05-19T01:42:04.273Z,1002.20
2023-05-19T01:43:04.278Z,1002.30
2023-05-19T01:44:05.250Z,1002.26
2023-05-19T01:45:04.242Z,1002.23
2023-05-19T01:46:04.366Z,1002.23
2023-05-19T01:47:04.237Z,1002.24
2023-05-19T01:48:04.278Z,1002.23
2023-05-19T01:49:04.193Z,1002.22
2023-05-19T01:50:04.229Z,1002.25
2023-05-19T01:51:04.184Z,1002.21
2023-05-19T01:52:04.159Z,1002.30
2023-05-19T01:53:04.184Z,1002.24
2023-05-19T01:54:04.142Z,1002.20
2023-05-19T01:55:04.136Z,1002.19
2023-05-19T01:56:04.132Z,1002.24
2023-05-19T01:57:04.138Z,1002.20
2023-05-19T01:58:04.109Z,1002.21
2023-05-19T01:59:04.101Z,1002.24
2023-05-19T02:00:04.086Z,1002.23
2023-05-19T02:01:04.113Z,1002.20
2023-05-19T02:02:04.081Z,1002.22
2023-05-19T02:03:04.062Z,1002.25
2023-05-19T02:04:04.052Z,1002.23
2023-05-19T02:05:04.026Z,1002.25
2023-05-19T02:06:04.052Z,1002.22
2023-05-19T02:07:04.032Z,1002.25
2023-05-19T02:08:04.000Z,1002.23
2023-05-19T02:09:04.000Z,1002.27
2023-05-19T02:10:03.987Z,1002.27
2023-05-19T02:11:03.998Z,1002.28
2023-05-19T02:12:03.957Z,1002.30
2023-05-19T02:13:03.938Z,1002.32
2023-05-19T02:14:03.938Z,1002.34
2023-05-19T02:15:03.922Z,1002.30
2023-05-19T02:16:03.986Z,1002.27
2023-05-19T02:17:03.888Z,1002.28
2023-05-19T02:18:03.928Z,1002.27
2023-05-19T02:19:03.880Z,1002.32
2023-05-19T02:20:03.870Z,1002.27
2023-05-19T02:21:03.858Z,1002.29
2023-05-19T02:22:03.834Z,1002.25
2023-05-19T02:23:03.850Z,1002.27
2023-05-19T02:24:03.804Z,1002.28
2023-05-19T02:25:03.818Z,1002.26
2023-05-19T02:26:03.789Z,1002.28
2023-05-19T02:27:03.791Z,1002.25
2023-05-19T02:28:03.773Z,1002.26
2023-05-19T02:29:03.754Z,1002.34
2023-05-19T02:30:03.764Z,1002.31
2023-05-19T02:31:03.726Z,1002.33
2023-05-19T02:32:03.754Z,1002.30
2023-05-19T02:33:03.712Z,1002.33
2023-05-19T02:34:03.727Z,1002.36
2023-05-19T02:35:03.713Z,1002.32
2023-05-19T02:36:03.676Z,1002.29
2023-05-19T02:37:03.668Z,1002.30
2023-05-19T02:38:03.671Z,1002.33
2023-05-19T02:39:03.651Z,1002.26
2023-05-19T02:40:03.636Z,1002.34
2023-05-19T02:41:03.621Z,1002.28
2023-05-19T02:42:03.619Z,1002.23
2023-05-19T02:43:03.619Z,1002.23
2023-05-19T02:44:03.604Z,1002.22
2023-05-19T02:45:03.576Z,1002.25
2023-05-19T02:46:03.615Z,1002.27
2023-05-19T02:47:03.562Z,1002.18
2023-05-19T02:48:03.621Z,1002.19
2023-05-19T02:49:03.569Z,1002.18
2023-05-19T02:50:03.534Z,1002.15
2023-05-19T02:51:03.538Z,1002.13
2023-05-19T02:52:04.510Z,1002.18
2023-05-19T02:53:03.557Z,1002.12
2023-05-19T02:54:03.574Z,1002.14
2023-05-19T02:55:03.520Z,1002.06
2023-05-19T02:56:03.553Z,1002.09
2023-05-19T02:57:03.450Z,1002.07
2023-05-19T02:58:03.454Z,1002.08
2023-05-19T02:59:03.428Z,1002.09
2023-05-19T03:00:03.451Z,1002.09
2023-05-19T03:01:03.404Z,1002.08
2023-05-19T03:02:03.443Z,1002.08
2023-05-19T03:03:03.431Z,1002.07
2023-05-19T03:04:03.520Z,1002.10
2023-05-19T03:05:03.380Z,1002.12
2023-05-19T03:06:03.341Z,1002.06
2023-05-19T03:07:03.335Z,1002.00
2023-05-19T03:08:03.332Z,1002.05
2023-05-19T03:09:03.328Z,1002.06
2023-05-19T03:10:03.299Z,1002.05
2023-05-19T03:11:03.287Z,1002.05
2023-05-19T03:12:03.297Z,1002.08
2023-05-19T03:13:03.254Z,1002.11
2023-05-19T03:14:03.262Z,1002.07
2023-05-19T03:15:03.237Z,1002.05
2023-05-19T03:16:03.290Z,1002.09
2023-05-19T03:17:03.290Z,1002.05
2023-05-19T03:18:03.247Z,1002.10
2023-05-19T03:19:03.241Z,1002.08
2023-05-19T03:20:03.195Z,1002.10
2023-05-19T03:21:03.191Z,1002.04
2023-05-19T03:22:03.187Z,1002.09
2023-05-19T03:23:03.159Z,1002.10
2023-05-19T03:24:03.143Z,1002.17
2023-05-19T03:25:03.165Z,1002.10
2023-05-19T03:26:03.130Z,1002.14
2023-05-19T03:27:03.126Z,1002.12
2023-05-19T03:28:03.117Z,1002.14
2023-05-19T03:29:03.093Z,1002.16
2023-05-19T03:30:05.697Z,1002.11
2023-05-19T03:31:03.087Z,1002.10
2023-05-19T03:32:03.102Z,1002.06
2023-05-19T03:33:03.133Z,1002.11
2023-05-19T03:34:03.039Z,1002.10
2023-05-19T03:35:03.048Z,1002.09
2023-05-19T03:36:03.026Z,1002.13
2023-05-19T03:37:03.015Z,1002.15
2023-05-19T03:38:02.995Z,1002.12
2023-05-19T03:39:02.988Z,1002.09
2023-05-19T03:40:03.021Z,1002.12
2023-05-19T03:41:02.974Z,1002.13
2023-05-19T03:42:02.958Z,1002.15
2023-05-19T03:43:02.944Z,1002.17
2023-05-19T03:44:02.966Z,1002.15
2023-05-19T03:45:02.947Z,1002.19
2023-05-19T03:46:02.929Z,1002.15
2023-05-19T03:47:02.899Z,1002.14
2023-05-19T03:48:02.922Z,1002.14
2023-05-19T03:49:02.899Z,1002.22
2023-05-19T03:50:02.878Z,1002.21
2023-05-19T03:51:02.849Z,1002.17
2023-05-19T03:52:34.877Z,1002.14
2023-05-19T03:53:02.840Z,1002.17
2023-05-19T03:54:02.849Z,1002.14
2023-05-19T03:55:02.824Z,1002.18
2023-05-19T03:56:02.829Z,1002.14
2023-05-19T03:57:02.853Z,1002.17
2023-05-19T03:58:02.784Z,1002.17
2023-05-19T03:59:02.781Z,1002.13
2023-05-19T04:00:02.745Z,1002.15
2023-05-19T04:01:02.751Z,1002.15
2023-05-19T04:02:02.748Z,1002.11
2023-05-19T04:03:02.859Z,1002.11
2023-05-19T04:04:02.738Z,1002.14
2023-05-19T04:05:02.692Z,1002.20
2023-05-19T04:06:02.694Z,1002.15
2023-05-19T04:07:02.676Z,1002.15
2023-05-19T04:08:02.687Z,1002.14
2023-05-19T04:09:02.658Z,1002.13
2023-05-19T04:10:02.655Z,1002.19
2023-05-19T04:11:02.639Z,1002.14
2023-05-19T04:12:02.640Z,1002.15
2023-05-19T04:13:02.618Z,1002.16
2023-05-19T04:14:02.595Z,1002.21
2023-05-19T04:15:02.583Z,1002.13
2023-05-19T04:16:02.574Z,1002.15
2023-05-19T04:17:02.577Z,1002.08
2023-05-19T04:18:02.695Z,1002.13
2023-05-19T04:19:02.565Z,1002.15
2023-05-19T04:20:02.535Z,1002.16
2023-05-19T04:21:02.508Z,1002.15
2023-05-19T04:22:02.518Z,1002.19
2023-05-19T04:23:02.501Z,1002.22
2023-05-19T04:24:02.505Z,1002.14
2023-05-19T04:25:02.477Z,1002.23
2023-05-19T04:26:02.479Z,1002.23
2023-05-19T04:27:02.466Z,1002.20
2023-05-19T04:28:02.446Z,1002.23
2023-05-19T04:29:02.437Z,1002.23
2023-05-19T04:30:02.437Z,1002.22
2023-05-19T04:31:02.461Z,1002.22
2023-05-19T04:32:02.406Z,1002.21
2023-05-19T04:33:02.404Z,1002.17
2023-05-19T04:34:02.376Z,1002.15
2023-05-19T04:35:02.352Z,1002.14
2023-05-19T04:36:02.352Z,1002.15
2023-05-19T04:37:02.323Z,1002.14
2023-05-19T04:38:02.320Z,1002.17
2023-05-19T04:39:02.354Z,1002.19
2023-05-19T04:40:02.315Z,1002.18
2023-05-19T04:41:02.303Z,1002.22
2023-05-19T04:42:02.272Z,1002.23
2023-05-19T04:43:02.426Z,1002.26
2023-05-19T04:44:02.246Z,1002.25
2023-05-19T04:45:02.265Z,1002.31
2023-05-19T04:46:02.227Z,1002.31
2023-05-19T04:47:02.260Z,1002.31
2023-05-19T04:48:02.293Z,1002.26
2023-05-19T04:49:03.210Z,1002.31
2023-05-19T04:50:02.205Z,1002.33
2023-05-19T04:51:02.176Z,1002.27
2023-05-19T04:52:02.167Z,1002.31
2023-05-19T04:53:02.154Z,1002.28
2023-05-19T04:54:02.174Z,1002.29
2023-05-19T04:55:02.165Z,1002.31
2023-05-19T04:56:02.142Z,1002.35
2023-05-19T04:57:02.151Z,1002.36
2023-05-19T04:58:02.104Z,1002.39
2023-05-19T04:59:02.148Z,1002.35
2023-05-19T05:00:02.089Z,1002.33
2023-05-19T05:01:02.054Z,1002.38
2023-05-19T05:02:02.099Z,1002.36
2023-05-19T05:03:02.064Z,1002.36
2023-05-19T05:04:02.156Z,1002.34
2023-05-19T05:05:02.017Z,1002.36
2023-05-19T05:06:02.009Z,1002.33
2023-05-19T05:07:01.997Z,1002.27
2023-05-19T05:08:02.053Z,1002.22
2023-05-19T05:09:02.025Z,1002.26
2023-05-19T05:10:01.996Z,1002.27
2023-05-19T05:11:01.944Z,1002.33
2023-05-19T05:12:01.964Z,1002.31
2023-05-19T05:13:02.940Z,1002.29
2023-05-19T05:14:01.934Z,1002.33
2023-05-19T05:15:02.002Z,1002.26
2023-05-19T05:16:01.930Z,1002.30
2023-05-19T05:17:01.905Z,1002.25
2023-05-19T05:18:01.998Z,1002.27
2023-05-19T05:19:01.872Z,1002.22
2023-05-19T05:20:01.849Z,1002.20
2023-05-19T05:21:01.831Z,1002.23
2023-05-19T05:22:01.845Z,1002.21
2023-05-19T05:23:01.836Z,1002.20
2023-05-19T05:24:01.815Z,1002.19
2023-05-19T05:25:01.788Z,1002.20
2023-05-19T05:26:01.770Z,1002.23
2023-05-19T05:27:01.786Z,1002.23
2023-05-19T05:28:01.772Z,1002.24
2023-05-19T05:29:01.811Z,1002.27
2023-05-19T05:30:01.726Z,1002.31
2023-05-19T05:31:01.726Z,1002.24
2023-05-19T05:32:01.741Z,1002.23
2023-05-19T05:33:01.719Z,1002.24
2023-05-19T05:34:01.686Z,1002.24
2023-05-19T05:35:01.695Z,1002.28
2023-05-19T05:36:01.693Z,1002.26
2023-05-19T05:37:01.773Z,1002.22
2023-05-19T05:38:01.657Z,1002.21
2023-05-19T05:39:01.647Z,1002.27
2023-05-19T05:40:01.630Z,1002.20
2023-05-19T05:41:01.623Z,1002.22
2023-05-19T05:42:02.615Z,1002.21
2023-05-19T05:43:01.609Z,1002.16
2023-05-19T05:44:01.589Z,1002.12
2023-05-19T05:45:01.581Z,1002.11
2023-05-19T05:46:01.626Z,1002.20
2023-05-19T05:47:01.582Z,1002.13
2023-05-19T05:48:01.609Z,1002.20
2023-05-19T05:49:01.542Z,1002.14
2023-05-19T05:50:01.549Z,1002.16
2023-05-19T05:51:01.547Z,1002.16
2023-05-19T05:52:06.130Z,1002.11
2023-05-19T05:53:03.498Z,1002.20
2023-05-19T05:54:01.493Z,1002.15
2023-05-19T05:55:01.494Z,1002.16
2023-05-19T05:56:01.462Z,1002.15
2023-05-19T05:57:01.474Z,1002.17
2023-05-19T05:58:01.462Z,1002.11
2023-05-19T05:59:01.436Z,1002.10
2023-05-19T06:00:01.443Z,1002.18
2023-05-19T06:01:01.420Z,1002.15
2023-05-19T06:02:01.439Z,1002.15
2023-05-19T06:03:01.462Z,1002.20
2023-05-19T06:04:01.405Z,1002.15
2023-05-19T06:05:01.444Z,1002.15
2023-05-19T06:06:02.442Z,1002.18
2023-05-19T06:07:01.395Z,1002.20
2023-05-19T06:08:01.352Z,1002.24
2023-05-19T06:09:01.368Z,1002.18
2023-05-19T06:10:01.347Z,1002.12
2023-05-19T06:11:01.323Z,1002.16
2023-05-19T06:12:01.313Z,1002.13
2023-05-19T06:13:01.323Z,1002.16
2023-05-19T06:14:01.321Z,1002.19
2023-05-19T06:15:01.277Z,1002.07
2023-05-19T06:16:02.190Z,1002.07
2023-05-19T06:17:02.268Z,1002.05
2023-05-19T06:18:01.456Z,1002.04
2023-05-19T06:19:01.292Z,1002.01
2023-05-19T06:20:01.235Z,1002.11
2023-05-19T06:21:01.239Z,1002.10
2023-05-19T06:22:01.221Z,1002.14
2023-05-19T06:23:01.256Z,1002.04
2023-05-19T06:24:01.242Z,1001.98
2023-05-19T06:25:01.194Z,1002.05
2023-05-19T06:26:01.194Z,1002.05
2023-05-19T06:27:01.213Z,1002.10
2023-05-19T06:28:01.185Z,1002.14
2023-05-19T06:29:01.155Z,1002.08
2023-05-19T06:30:01.175Z,1002.11
2023-05-19T06:31:01.163Z,1002.11
2023-05-19T06:32:01.124Z,1002.08
2023-05-19T06:33:01.137Z,1002.11
2023-05-19T06:34:01.132Z,1002.08
2023-05-19T06:35:01.151Z,1002.05
2023-05-19T06:36:01.118Z,1002.07
2023-05-19T06:37:01.074Z,1002.10
2023-05-19T06:38:01.101Z,1002.01
2023-05-19T06:39:02.604Z,1001.97
2023-05-19T06:40:01.050Z,1002.01
2023-05-19T06:41:01.038Z,1002.02
2023-05-19T06:42:01.045Z,1002.06
2023-05-19T06:43:01.055Z,1002.03
2023-05-19T06:44:01.007Z,1001.97
2023-05-19T06:45:01.000Z,1002.06
2023-05-19T06:46:01.005Z,1002.13
2023-05-19T06:47:01.058Z,1002.08
2023-05-19T06:48:01.032Z,1002.02
2023-05-19T06:49:00.956Z,1002.10
2023-05-19T06:50:00.954Z,1002.11
2023-05-19T06:51:00.989Z,1002.07
2023-05-19T06:52:00.934Z,1002.04
2023-05-19T06:53:00.943Z,1001.96
2023-05-19T06:54:00.946Z,1002.06
2023-05-19T06:55:00.935Z,1002.05
2023-05-19T06:56:00.881Z,1001.95
2023-05-19T06:57:00.870Z,1002.00
2023-05-19T06:58:00.889Z,1001.97
2023-05-19T06:59:00.848Z,1001.96
2023-05-19T07:00:00.842Z,1001.96
2023-05-19T07:01:00.854Z,1001.94
2023-05-19T07:02:00.832Z,1001.90
2023-05-19T07:03:00.912Z,1001.95
2023-05-19T07:04:00.888Z,1001.84
2023-05-19T07:05:00.817Z,1001.75
2023-05-19T07:06:00.826Z,1001.86
2023-05-19T07:07:00.774Z,1001.93
2023-05-19T07:08:00.764Z,1001.94
2023-05-19T07:09:00.756Z,1001.87
2023-05-19T07:10:00.764Z,1002.03
2023-05-19T07:11:00.729Z,1001.94
2023-05-19T07:12:00.722Z,1001.95
2023-05-19T07:13:00.713Z,1001.93
2023-05-19T07:14:00.734Z,1001.95
2023-05-19T07:15:00.726Z,1001.87
2023-05-19T07:16:00.815Z,1001.86
2023-05-19T07:17:00.670Z,1001.82
2023-05-19T07:18:00.736Z,1001.83
2023-05-19T07:19:00.766Z,1001.85
2023-05-19T07:20:00.660Z,1001.84
2023-05-19T07:21:00.643Z,1001.89
2023-05-19T07:22:00.656Z,1001.81
2023-05-19T07:23:00.675Z,1001.80
2023-05-19T07:24:00.634Z,1001.83
2023-05-19T07:25:00.600Z,1001.77
2023-05-19T07:26:00.609Z,1001.81
2023-05-19T07:27:00.585Z,1001.82
2023-05-19T07:28:00.575Z,1001.80
2023-05-19T07:29:00.577Z,1001.80
2023-05-19T07:30:00.550Z,1001.77
2023-05-19T07:31:00.530Z,1001.73
2023-05-19T07:32:00.577Z,1001.77
2023-05-19T07:33:00.602Z,1001.78
2023-05-19T07:34:00.508Z,1001.74
2023-05-19T07:35:00.504Z,1001.79
2023-05-19T07:36:00.494Z,1001.73
2023-05-19T07:37:00.482Z,1001.76
2023-05-19T07:38:00.487Z,1001.73
2023-05-19T07:39:00.480Z,1001.68
2023-05-19T07:40:00.490Z,1001.71
2023-05-19T07:41:00.481Z,1001.68
2023-05-19T07:42:00.455Z,1001.69
2023-05-19T07:43:00.435Z,1001.69
2023-05-19T07:44:00.414Z,1001.70
2023-05-19T07:45:00.415Z,1001.72
2023-05-19T07:46:00.467Z,1001.67
2023-05-19T07:47:00.397Z,1001.66
2023-05-19T07:48:00.553Z,1001.64
2023-05-19T07:49:00.368Z,1001.63
2023-05-19T07:50:00.363Z,1001.59
2023-05-19T07:51:00.342Z,1001.61
2023-05-19T07:52:00.345Z,1001.60
2023-05-19T07:53:00.323Z,1001.62
2023-05-19T07:54:00.317Z,1001.64
2023-05-19T07:55:00.300Z,1001.55
2023-05-19T07:56:00.296Z,1001.64
2023-05-19T07:57:00.297Z,1001.58
2023-05-19T07:58:00.274Z,1001.55
2023-05-19T07:59:00.261Z,1001.49
2023-05-19T08:00:00.247Z,1001.56
2023-05-19T08:01:00.267Z,1001.61
2023-05-19T08:02:00.343Z,1001.55
2023-05-19T08:03:00.304Z,1001.58
2023-05-19T08:04:00.321Z,1001.43
2023-05-19T08:05:00.194Z,1001.45
2023-05-19T08:06:00.227Z,1001.51
2023-05-19T08:07:00.179Z,1001.45
2023-05-19T08:08:00.166Z,1001.38
2023-05-19T08:09:00.168Z,1001.49
2023-05-19T08:10:00.195Z,1001.46
2023-05-19T08:11:00.189Z,1001.39
2023-05-19T08:12:00.150Z,1001.41
2023-05-19T08:13:00.139Z,1001.39
2023-05-19T08:14:00.135Z,1001.43
2023-05-19T08:15:01.399Z,1001.41
2023-05-19T08:16:01.194Z,1001.46
2023-05-19T08:17:00.117Z,1001.36
2023-05-19T08:18:00.201Z,1001.45
2023-05-19T08:19:00.146Z,1001.44
2023-05-19T08:20:00.074Z,1001.42
2023-05-19T08:21:00.049Z,1001.37
2023-05-19T08:22:00.138Z,1001.34
2023-05-19T08:23:00.045Z,1001.42
2023-05-19T08:24:00.031Z,1001.48
2023-05-19T08:25:00.033Z,1001.46
2023-05-19T08:26:00.008Z,1001.35
2023-05-19T08:26:59.992Z,1001.41
2023-05-19T08:28:00.064Z,1001.37
2023-05-19T08:29:00.056Z,1001.35
2023-05-19T08:29:59.985Z,1001.35
2023-05-19T08:30:59.979Z,1001.40
2023-05-19T08:31:59.941Z,1001.31
2023-05-19T08:33:00.019Z,1001.33
2023-05-19T08:33:59.950Z,1001.33
2023-05-19T08:34:59.912Z,1001.29
2023-05-19T08:35:59.908Z,1001.26
2023-05-19T08:36:59.933Z,1001.23
2023-05-19T08:37:59.886Z,1001.24
2023-05-19T08:38:59.949Z,1001.25
2023-05-19T08:39:59.901Z,1001.20
2023-05-19T08:40:59.924Z,1001.19
2023-05-19T08:41:59.868Z,1001.17
2023-05-19T08:42:59.913Z,1001.17
2023-05-19T08:43:59.842Z,1001.23
2023-05-19T08:44:59.904Z,1001.15
2023-05-19T08:45:59.798Z,1001.21
2023-05-19T08:46:59.908Z,1001.15
2023-05-19T08:47:59.841Z,1001.23
2023-05-19T08:48:59.791Z,1001.16
2023-05-19T08:49:59.769Z,1001.18
2023-05-19T08:50:59.759Z,1001.17
2023-05-19T08:51:59.744Z,1001.20
2023-05-19T08:52:59.750Z,1001.22
2023-05-19T08:53:59.725Z,1001.13
2023-05-19T08:54:59.720Z,1001.20
2023-05-19T08:55:59.698Z,1001.10
2023-05-19T08:56:59.702Z,1001.10
2023-05-19T08:57:59.716Z,1001.02
2023-05-19T08:58:59.692Z,1001.05
2023-05-19T08:59:59.666Z,1001.07
2023-05-19T09:00:59.680Z,1001.06
2023-05-19T09:01:59.649Z,1001.08
2023-05-19T09:03:06.122Z,1001.00
2023-05-19T09:04:01.809Z,1001.06
2023-05-19T09:04:59.764Z,1001.04
2023-05-19T09:05:59.613Z,1001.03
2023-05-19T09:06:59.626Z,1000.98
2023-05-19T09:07:59.580Z,1001.01
2023-05-19T09:08:59.577Z,1001.00
2023-05-19T09:09:59.574Z,1000.85
2023-05-19T09:10:59.619Z,1000.96
2023-05-19T09:11:59.570Z,1001.02
2023-05-19T09:12:59.535Z,1000.93
2023-05-19T09:13:59.560Z,1000.93
2023-05-19T09:14:59.518Z,1000.95
2023-05-19T09:15:59.530Z,1000.89
2023-05-19T09:16:59.579Z,1000.78
2023-05-19T09:17:59.522Z,1000.84
2023-05-19T09:18:59.524Z,1000.90
2023-05-19T09:19:59.465Z,1000.89
2023-05-19T09:20:59.517Z,1000.96
2023-05-19T09:21:59.504Z,1000.93
2023-05-19T09:22:59.440Z,1000.99
2023-05-19T09:23:59.435Z,1000.93
2023-05-19T09:24:59.433Z,1000.97
2023-05-19T09:25:59.440Z,1000.96
2023-05-19T09:27:00.456Z,1000.92
2023-05-19T09:28:00.382Z,1000.95
2023-05-19T09:28:59.376Z,1000.90
2023-05-19T09:29:59.467Z,1000.92
2023-05-19T09:31:00.383Z,1000.93
2023-05-19T09:31:59.421Z,1001.01
2023-05-19T09:32:59.397Z,1000.92
2023-05-19T09:33:59.337Z,1000.91
2023-05-19T09:34:59.378Z,1000.91
2023-05-19T09:35:59.315Z,1000.91
2023-05-19T09:36:59.307Z,1000.92
2023-05-19T09:37:59.348Z,1000.88
2023-05-19T09:38:59.279Z,1000.83
2023-05-19T09:39:59.338Z,1000.82
2023-05-19T09:40:59.273Z,1000.83
2023-05-19T09:41:59.258Z,1000.78
2023-05-19T09:42:59.235Z,1000.85
2023-05-19T09:43:59.266Z,1000.81
2023-05-19T09:44:59.251Z,1000.79
2023-05-19T09:45:59.262Z,1000.73
2023-05-19T09:46:59.251Z,1000.72
2023-05-19T09:47:59.199Z,1000.73
2023-05-19T09:48:59.178Z,1000.69
2023-05-19T09:49:59.295Z,1000.70
2023-05-19T09:50:59.161Z,1000.68
2023-05-19T09:51:59.150Z,1000.77
2023-05-19T09:52:59.136Z,1000.77
2023-05-19T09:54:31.047Z,1000.73
2023-05-19T09:54:59.133Z,1000.76
2023-05-19T09:55:59.110Z,1000.71
2023-05-19T09:56:59.139Z,1000.79
2023-05-19T09:57:59.183Z,1000.74
2023-05-19T09:58:59.140Z,1000.65
2023-05-19T09:59:59.079Z,1000.77
2023-05-19T10:00:59.090Z,1000.70
2023-05-19T10:01:59.063Z,1000.69
2023-05-19T10:02:59.141Z,1000.68
2023-05-19T10:03:59.026Z,1000.70
2023-05-19T10:04:59.066Z,1000.73
2023-05-19T10:05:59.010Z,1000.73
2023-05-19T10:06:59.010Z,1000.64
2023-05-19T10:07:59.023Z,1000.66
2023-05-19T10:08:58.986Z,1000.60
2023-05-19T10:09:58.966Z,1000.66
2023-05-19T10:10:58.991Z,1000.64
2023-05-19T10:11:59.013Z,1000.62
2023-05-19T10:12:58.963Z,1000.57
2023-05-19T10:13:58.943Z,1000.61
2023-05-19T10:14:58.913Z,1000.57
2023-05-19T10:15:59.908Z,1000.62
2023-05-19T10:16:58.992Z,1000.70
2023-05-19T10:17:58.917Z,1000.67
2023-05-19T10:18:58.935Z,1000.65
2023-05-19T10:19:58.857Z,1000.55
2023-05-19T10:20:58.867Z,1000.60
2023-05-19T10:21:58.868Z,1000.52
2023-05-19T10:22:58.842Z,1000.52
2023-05-19T10:23:58.880Z,1000.46
2023-05-19T10:24:58.820Z,1000.43
2023-05-19T10:25:58.854Z,1000.40
2023-05-19T10:26:58.851Z,1000.47
2023-05-19T10:27:58.789Z,1000.46
2023-05-19T10:28:58.779Z,1000.53
2023-05-19T10:29:58.766Z,1000.51
2023-05-19T10:30:58.809Z,1000.48
2023-05-19T10:31:58.817Z,1000.49
2023-05-19T10:32:58.744Z,1000.59
2023-05-19T10:33:59.762Z,1000.52
2023-05-19T10:34:58.722Z,1000.52
2023-05-19T10:35:58.731Z,1000.49
2023-05-19T10:36:58.699Z,1000.41
2023-05-19T10:37:58.692Z,1000.42
2023-05-19T10:38:58.680Z,1000.43
2023-05-19T10:39:58.688Z,1000.45
2023-05-19T10:40:58.682Z,1000.39
2023-05-19T10:41:58.665Z,1000.37
2023-05-19T10:42:58.648Z,1000.43
2023-05-19T10:43:58.628Z,1000.33
2023-05-19T10:44:58.640Z,1000.36
2023-05-19T10:45:58.603Z,1000.41
2023-05-19T10:46:58.637Z,1000.40
2023-05-19T10:47:58.595Z,1000.37
2023-05-19T10:48:58.598Z,1000.41
2023-05-19T10:49:58.600Z,1000.31
2023-05-19T10:50:58.561Z,1000.25
2023-05-19T10:51:58.556Z,1000.26
2023-05-19T10:52:58.551Z,1000.24
2023-05-19T10:53:58.563Z,1000.27
2023-05-19T10:54:58.652Z,1000.33
2023-05-19T10:55:58.538Z,1000.30
2023-05-19T10:56:58.516Z,1000.33
2023-05-19T10:57:58.510Z,1000.31
2023-05-19T10:58:59.483Z,1000.27
2023-05-19T10:59:58.474Z,1000.36
2023-05-19T11:00:58.506Z,1000.27
2023-05-19T11:01:58.464Z,1000.16
2023-05-19T11:02:58.531Z,1000.44
2023-05-19T11:03:58.489Z,1000.25
2023-05-19T11:04:58.452Z,1000.28
2023-05-19T11:05:58.412Z,1000.31
2023-05-19T11:06:58.407Z,1000.30
2023-05-19T11:07:58.427Z,1000.27
2023-05-19T11:08:58.396Z,1000.26
2023-05-19T11:09:58.416Z,1000.29
2023-05-19T11:10:58.364Z,1000.28
2023-05-19T11:11:58.371Z,1000.28
2023-05-19T11:12:58.476Z,1000.32
2023-05-19T11:13:58.344Z,1000.27
2023-05-19T11:14:58.340Z,1000.20
2023-05-19T11:15:58.328Z,1000.30
2023-05-19T11:16:58.418Z,1000.26
2023-05-19T11:17:58.351Z,1000.26
2023-05-19T11:18:58.313Z,1000.22
2023-05-19T11:19:58.291Z,1000.22
2023-05-19T11:20:58.336Z,1000.21
2023-05-19T11:21:58.293Z,1000.22
2023-05-19T11:22:58.314Z,1000.16
2023-05-19T11:23:58.367Z,1000.09
2023-05-19T11:24:58.237Z,1000.13
2023-05-19T11:25:58.242Z,1000.16
2023-05-19T11:26:58.243Z,1000.21
2023-05-19T11:27:58.206Z,1000.16
2023-05-19T11:28:58.196Z,1000.13
2023-05-19T11:29:58.176Z,1000.16
2023-05-19T11:30:58.174Z,1000.14
2023-05-19T11:31:58.235Z,1000.07
2023-05-19T11:32:58.171Z,1000.13
2023-05-19T11:33:58.149Z,1000.16
2023-05-19T11:34:58.248Z,1000.04
2023-05-19T11:35:58.352Z,1000.16
2023-05-19T11:36:58.115Z,1000.17
2023-05-19T11:37:58.145Z,1000.10
2023-05-19T11:38:58.110Z,1000.07
2023-05-19T11:39:58.099Z,1000.08
2023-05-19T11:40:58.124Z,1000.08
2023-05-19T11:41:58.084Z,1000.04
2023-05-19T11:42:58.059Z,1000.03
2023-05-19T11:43:58.071Z,1000.03
2023-05-19T11:44:58.049Z,1000.11
2023-05-19T11:45:58.117Z,1000.08
2023-05-19T11:46:58.028Z,1000.04
2023-05-19T11:48:02.616Z,1000.15
2023-05-19T11:49:00.008Z,1000.00
2023-05-19T11:49:58.015Z,1000.02
2023-05-19T11:50:58.004Z,999.96
2023-05-19T11:51:57.981Z,999.97
2023-05-19T11:52:57.963Z,1000.05
2023-05-19T11:53:57.948Z,999.97
2023-05-19T11:54:57.956Z,1000.04
2023-05-19T11:55:57.925Z,999.98
2023-05-19T11:56:57.914Z,1000.02
2023-05-19T11:58:03.838Z,999.99
2023-05-19T11:58:59.905Z,999.97
2023-05-19T11:59:57.924Z,1000.01
2023-05-19T12:00:57.882Z,1000.05
2023-05-19T12:01:57.906Z,1000.04
2023-05-19T12:02:57.935Z,1000.10
2023-05-19T12:03:57.938Z,1000.05
2023-05-19T12:04:57.919Z,999.99
2023-05-19T12:05:57.878Z,1000.00